Time;durP1;ratioP1;P1;durP2;ratioP2;P2;SDS_P1;SDS_P2;PMS_P1;PMS_P2;Temp;Humidity;BMP_temperature;BMP_pressure;BME280_temperature;BME280_humidity;BME280_pressure;Samples;Min_cycle;Max_cycle;Signal;HPM_P1;HPM_P2
2022/08/25 00:00:12;;;;;;;4.90;2.10;;;;;;;25.09;58.34;100836.22;5035592;28;20060;-76
2022/08/25 00:02:40;;;;;;;3.33;1.92;;;;;;;25.03;59.08;100836.91;5021391;28;20046;-76
2022/08/25 00:05:27;;;;;;;3.05;2.15;;;;;;;24.92;59.38;100837.53;5035077;28;20056;-76
2022/08/25 00:08:00;;;;;;;4.82;2.10;;;;;;;24.95;59.04;100834.00;5035343;28;20045;-76
2022/08/25 00:10:29;;;;;;;1.98;1.88;;;;;;;24.89;59.25;100826.28;5035637;28;20049;-76
2022/08/25 00:12:58;;;;;;;2.85;1.75;;;;;;;24.91;59.07;100827.53;5034704;28;20068;-76
2022/08/25 00:15:27;;;;;;;2.28;2.00;;;;;;;24.86;59.07;100819.44;5031494;28;20044;-76
2022/08/25 00:17:55;;;;;;;2.10;1.88;;;;;;;24.85;59.26;100822.59;5035101;28;20409;-76
2022/08/25 00:20:24;;;;;;;3.15;2.50;;;;;;;24.81;59.42;100825.34;5034953;28;20060;-76
2022/08/25 00:22:52;;;;;;;3.10;2.30;;;;;;;24.74;59.28;100825.19;5034952;28;20056;-76
2022/08/25 00:25:20;;;;;;;3.53;2.20;;;;;;;24.78;59.68;100828.88;5034849;28;20050;-76
2022/08/25 00:27:51;;;;;;;3.30;1.90;;;;;;;24.75;59.54;100826.78;5035022;28;20045;-76
2022/08/25 00:30:19;;;;;;;4.10;2.97;;;;;;;24.80;59.64;100829.28;5034690;28;20053;-76
2022/08/25 00:32:47;;;;;;;2.88;2.38;;;;;;;24.76;59.80;100828.41;5035038;28;20057;-76
2022/08/25 00:35:25;;;;;;;2.30;2.10;;;;;;;24.83;59.37;100829.38;5034384;28;20049;-76
2022/08/25 00:37:53;;;;;;;2.88;2.22;;;;;;;24.92;59.89;100831.94;5035149;28;20478;-76
2022/08/25 00:40:24;;;;;;;2.28;2.10;;;;;;;24.88;60.07;100833.84;5034701;28;20053;-76
2022/08/25 00:42:53;;;;;;;4.90;2.20;;;;;;;24.92;59.90;100831.94;5034722;28;20053;-76
2022/08/25 00:45:22;;;;;;;3.10;2.30;;;;;;;24.86;59.43;100829.81;5034752;28;20482;-76
2022/08/25 00:47:51;;;;;;;4.22;2.28;;;;;;;24.78;59.67;100815.66;5034480;28;20057;-76
2022/08/25 00:50:21;;;;;;;2.50;2.30;;;;;;;24.77;59.72;100819.66;5034315;28;20046;-76
2022/08/25 00:52:57;;;;;;;2.28;2.10;;;;;;;24.70;59.91;100819.53;5033089;28;20409;-76
2022/08/25 00:55:33;;;;;;;2.40;2.20;;;;;;;24.77;59.87;100810.44;5034857;28;20514;-76
2022/08/25 00:58:12;;;;;;;2.20;2.05;;;;;;;24.70;61.03;100811.13;5036607;28;20419;-76
2022/08/25 01:00:45;;;;;;;3.47;1.85;;;;;;;24.57;60.35;100810.50;5034525;28;20053;-76
2022/08/25 01:03:13;;;;;;;2.30;2.10;;;;;;;24.73;59.53;100804.78;5020053;28;20148;-76
2022/08/25 01:05:42;;;;;;;2.83;2.13;;;;;;;24.51;60.56;100806.38;5034302;28;20049;-76
2022/08/25 01:08:11;;;;;;;2.75;2.55;;;;;;;24.51;60.41;100806.38;5035069;28;20053;-76
2022/08/25 01:10:44;;;;;;;2.13;2.03;;;;;;;24.59;60.34;100807.31;5034839;28;20050;-76
2022/08/25 01:13:30;;;;;;;2.78;2.33;;;;;;;24.54;60.61;100820.44;5025130;28;20425;-76
2022/08/25 01:15:58;;;;;;;2.50;2.30;;;;;;;24.64;60.52;100810.63;5027214;28;20396;-76
2022/08/25 01:18:27;;;;;;;3.78;2.40;;;;;;;24.57;60.81;100810.50;5033921;28;20049;-76
2022/08/25 01:20:58;;;;;;;3.17;2.53;;;;;;;24.53;61.04;100815.19;5026365;28;20377;-76
2022/08/25 01:23:26;;;;;;;3.28;2.45;;;;;;;24.59;60.65;100816.53;5028457;28;20041;-76
2022/08/25 01:26:12;;;;;;;2.80;2.47;;;;;;;24.52;60.96;100813.59;5033743;28;20052;-76
2022/08/25 01:29:19;;;;;;;2.60;2.40;;;;;;;24.52;61.00;100814.41;5033386;28;20148;-76
2022/08/25 01:31:30;;;;;;;2.80;2.40;;;;;;;24.38;61.71;100812.13;5033509;28;20049;-76
2022/08/25 01:33:59;;;;;;;5.13;2.72;;;;;;;24.47;60.83;100805.50;5033580;28;20377;-76
2022/08/25 01:36:29;;;;;;;2.75;2.40;;;;;;;24.58;60.45;100816.91;5033809;28;20053;-76
2022/08/25 01:38:57;;;;;;;2.95;2.63;;;;;;;24.53;60.53;100804.81;5033911;28;20049;-76
2022/08/25 01:41:40;;;;;;;2.60;2.35;;;;;;;24.51;61.37;100812.78;5033693;28;20057;-75
2022/08/25 01:44:08;;;;;;;2.78;2.53;;;;;;;24.59;60.46;100802.56;5033751;28;20049;-75
2022/08/25 01:46:40;;;;;;;2.40;2.20;;;;;;;24.61;59.95;100804.94;5033985;28;20053;-76
2022/08/25 01:49:09;;;;;;;2.63;2.30;;;;;;;24.59;60.21;100801.72;5033379;28;20253;-75
2022/08/25 01:51:43;;;;;;;2.58;2.10;;;;;;;24.49;62.07;100805.94;5033587;28;20507;-76
2022/08/25 01:54:11;;;;;;;;;;;;;;;24.37;61.32;100804.94;5033992;28;20053;-76
2022/08/25 01:56:38;;;;;;;2.85;2.50;;;;;;;24.44;61.21;100807.06;5033622;28;19925;-76
2022/08/25 01:59:06;;;;;;;2.08;1.98;;;;;;;24.40;61.41;100795.78;5033561;28;20050;-76
2022/08/25 02:01:34;;;;;;;2.33;2.13;;;;;;;24.42;61.11;100803.81;5033700;28;20045;-76
2022/08/25 02:04:03;;;;;;;2.65;2.40;;;;;;;24.41;61.18;100797.44;5033128;28;20060;-76
2022/08/25 02:06:32;;;;;;;3.47;2.33;;;;;;;24.45;61.01;100791.06;5032981;28;20130;-76
2022/08/25 02:09:10;;;;;;;5.88;2.80;;;;;;;24.42;61.10;100799.03;5033402;28;20492;-76
2022/08/25 02:11:40;;;;;;;2.30;2.10;;;;;;;24.36;61.48;100796.91;5033085;28;20041;-76
2022/08/25 02:14:10;;;;;;;2.30;2.08;;;;;;;24.52;61.28;100802.41;5031815;28;20060;-76
2022/08/25 02:16:43;;;;;;;2.53;2.33;;;;;;;24.48;60.99;100801.53;5032839;28;20519;-76
2022/08/25 02:19:11;;;;;;;3.22;2.22;;;;;;;24.49;61.00;100797.56;5032613;28;20045;-76
2022/08/25 02:21:39;;;;;;;2.70;2.47;;;;;;;24.53;60.90;100795.63;5032746;28;20057;-76
2022/08/25 02:24:08;;;;;;;3.03;2.20;;;;;;;24.58;60.74;100798.13;5032867;28;20061;-76
2022/08/25 02:26:35;;;;;;;3.03;2.40;;;;;;;24.59;60.61;100802.56;5033013;28;20057;-76
2022/08/25 02:29:06;;;;;;;3.15;2.40;;;;;;;24.56;61.15;100792.09;5032796;28;20061;-75
2022/08/25 02:31:35;;;;;;;2.45;2.28;;;;;;;24.52;60.85;100805.19;5010859;28;20057;-76
2022/08/25 02:34:03;;;;;;;2.70;2.30;;;;;;;24.50;61.28;100800.00;5009153;28;20050;-75
2022/08/25 02:36:31;;;;;;;4.43;3.03;;;;;;;24.53;60.88;100804.81;5014343;28;20061;-76
2022/08/25 02:38:59;;;;;;;2.53;2.33;;;;;;;24.40;61.11;100795.00;5003798;28;20042;-76
2022/08/25 02:41:27;;;;;;;3.33;2.20;;;;;;;24.45;60.90;100796.66;5012146;28;20057;-76
2022/08/25 02:44:01;;;;;;;2.75;2.10;;;;;;;24.46;60.63;100798.28;5012454;28;20042;-75
2022/08/25 02:46:31;;;;;;;3.10;2.63;;;;;;;24.49;60.44;100801.16;5012583;28;20050;-76
2022/08/25 02:48:59;;;;;;;4.40;2.47;;;;;;;24.51;60.94;100786.78;5012006;28;20054;-75
2022/08/25 02:51:28;;;;;;;3.55;2.83;;;;;;;24.48;60.54;100787.56;5012279;28;20053;-76
2022/08/25 02:53:58;;;;;;;3.20;2.83;;;;;;;24.45;60.97;100791.06;5012593;28;20050;-76
2022/08/25 02:56:29;;;;;;;3.88;2.72;;;;;;;24.35;61.34;100789.69;5002345;28;20053;-76
2022/08/25 02:58:59;;;;;;;3.58;2.53;;;;;;;24.17;61.50;100787.34;5012718;28;20046;-76
2022/08/25 03:01:28;;;;;;;3.88;3.20;;;;;;;24.25;61.24;100797.50;5012069;28;20045;-76
2022/08/25 03:03:56;;;;;;;4.70;2.60;;;;;;;24.30;61.05;100796.41;5011936;28;20049;-76
2022/08/25 03:06:26;;;;;;;3.78;2.58;;;;;;;24.40;61.16;100795.78;5011819;28;20053;-76
2022/08/25 03:08:55;;;;;;;3.13;2.80;;;;;;;24.28;61.55;100795.94;5011920;28;20042;-76
2022/08/25 03:11:25;;;;;;;3.00;2.63;;;;;;;24.17;61.47;100787.34;5012448;28;20046;-76
2022/08/25 03:13:53;;;;;;;2.45;2.20;;;;;;;24.20;60.94;100788.59;5012487;28;20038;-76
2022/08/25 03:16:22;;;;;;;4.43;2.78;;;;;;;24.22;61.02;100794.63;5023621;28;20508;-75
2022/08/25 03:18:55;;;;;;;3.37;2.80;;;;;;;24.22;60.58;100783.44;5032017;28;20782;-76
2022/08/25 03:21:25;;;;;;;3.03;2.72;;;;;;;24.28;60.76;100790.34;5031954;28;20296;-76
2022/08/25 03:23:53;;;;;;;4.20;2.20;;;;;;;24.12;61.00;100779.25;5032008;28;20045;-76
2022/08/25 03:29:09;;;;;;;2.72;2.53;;;;;;;24.21;60.91;100787.44;5031630;28;20049;-75
2022/08/25 03:31:37;;;;;;;2.38;2.17;;;;;;;24.21;60.49;100787.44;5031847;28;20061;-76
2022/08/25 03:34:05;;;;;;;2.55;2.35;;;;;;;24.25;60.76;100785.53;5031639;28;20048;-76
2022/08/25 03:36:34;;;;;;;2.55;2.35;;;;;;;24.21;60.37;100781.84;5031989;28;20057;-76
2022/08/25 03:39:03;;;;;;;2.53;2.30;;;;;;;24.25;61.12;100780.72;5030467;28;20080;-76
2022/08/25 03:41:32;;;;;;;3.63;2.25;;;;;;;24.25;60.61;100777.13;5031680;28;20049;-76
2022/08/25 03:44:04;;;;;;;3.42;2.35;;;;;;;24.27;60.36;100780.34;5031872;28;20058;-76
2022/08/25 03:46:52;;;;;;;4.53;2.25;;;;;;;24.12;61.24;100773.69;5031503;28;20492;-76
2022/08/25 03:49:22;;;;;;;5.40;2.00;;;;;;;24.24;60.33;100778.31;5030868;28;20053;-75
2022/08/25 03:51:52;;;;;;;2.67;2.47;;;;;;;24.23;60.54;100785.06;5031515;28;20067;-75
2022/08/25 03:54:24;;;;;;;3.35;2.40;;;;;;;24.35;59.72;100778.50;5031393;28;20064;-75
2022/08/25 03:56:52;;;;;;;2.70;2.47;;;;;;;24.41;60.33;100774.22;5031840;28;20511;-75
2022/08/25 03:59:20;;;;;;;2.25;1.85;;;;;;;24.35;60.04;100770.13;5031368;28;20053;-75
2022/08/25 04:01:49;;;;;;;5.93;2.47;;;;;;;24.34;59.59;100765.72;5031487;28;20057;-76
2022/08/25 04:04:22;;;;;;;2.88;2.10;;;;;;;24.18;60.31;100779.78;5031507;28;20034;-76
2022/08/25 04:06:50;;;;;;;2.70;2.08;;;;;;;24.14;61.22;100774.94;5031439;28;20057;-77
2022/08/25 04:09:18;;;;;;;3.85;2.10;;;;;;;24.11;60.92;100772.06;5031604;28;20404;-76
2022/08/25 04:11:46;;;;;;;5.18;2.03;;;;;;;24.08;60.79;100770.81;5031558;28;20044;-75
2022/08/25 04:14:20;;;;;;;2.15;2.05;;;;;;;24.05;61.04;100765.91;5031771;28;20049;-76
2022/08/25 04:17:00;;;;;;;2.13;2.00;;;;;;;24.07;60.69;100766.41;5027093;28;20817;-75
2022/08/25 04:19:28;;;;;;;2.33;2.13;;;;;;;24.04;61.90;100758.72;5031679;28;20053;-75
2022/08/25 04:21:56;;;;;;;2.50;2.30;;;;;;;23.83;62.19;100762.69;5030908;28;20053;-77
2022/08/25 04:24:24;;;;;;;4.70;2.85;;;;;;;23.87;62.11;100763.59;5031173;28;20056;-76
2022/08/25 04:26:52;;;;;;;3.65;2.20;;;;;;;24.09;61.57;100772.41;5031370;28;20042;-80
2022/08/25 04:29:22;;;;;;;2.47;2.28;;;;;;;24.41;60.47;100772.25;5014417;28;20049;-79
2022/08/25 04:31:52;;;;;;;2.10;1.98;;;;;;;24.91;59.14;100765.94;5014090;28;20053;-79
2022/08/25 04:34:24;;;;;;;4.38;2.50;;;;;;;25.14;58.43;100762.31;5014294;28;20045;-79
2022/08/25 04:37:00;;;;;;;2.20;2.00;;;;;;;25.34;57.42;100763.00;5014688;28;20395;-80
2022/08/25 04:39:28;;;;;;;4.13;2.08;;;;;;;25.33;57.74;100764.19;5012163;28;20369;-79
2022/08/25 04:41:56;;;;;;;2.25;1.85;;;;;;;25.55;57.87;100770.13;4989059;28;20042;-79
2022/08/25 04:44:24;;;;;;;3.63;2.30;;;;;;;25.43;57.72;100770.31;5032863;28;20041;-80
2022/08/25 04:46:52;;;;;;;2.20;1.95;;;;;;;25.62;57.45;100773.03;5032444;28;20056;-79
2022/08/25 04:49:20;;;;;;;2.50;2.30;;;;;;;25.40;57.83;100774.69;5034895;28;20073;-79
2022/08/25 04:51:48;;;;;;;2.60;2.40;;;;;;;25.26;58.23;100777.28;5034986;28;20052;-79
2022/08/25 04:54:20;;;;;;;3.20;2.22;;;;;;;25.23;58.05;100778.84;5034681;28;20419;-79
2022/08/25 04:56:50;;;;;;;2.38;2.17;;;;;;;25.15;58.08;100777.94;5034793;28;20050;-80
2022/08/25 04:59:25;;;;;;;2.17;1.98;;;;;;;25.34;58.33;100784.59;5033521;28;20049;-80
2022/08/25 05:02:01;;;;;;;2.78;2.13;;;;;;;25.22;58.20;100772.44;5033642;28;20052;-79
2022/08/25 05:04:31;;;;;;;2.28;2.00;;;;;;;25.42;58.10;100780.72;5034505;28;20037;-80
2022/08/25 05:07:00;;;;;;;4.38;2.75;;;;;;;25.47;57.95;100783.19;5034608;28;20045;-79
2022/08/25 05:09:28;;;;;;;2.00;1.90;;;;;;;25.53;57.69;100783.72;5034520;28;20042;-80
2022/08/25 05:12:01;;;;;;;2.53;2.33;;;;;;;25.61;57.07;100770.63;5028426;28;20046;-79
2022/08/25 05:14:31;;;;;;;2.47;2.28;;;;;;;25.90;56.35;100765.38;5034243;28;20046;-79
2022/08/25 05:16:59;;;;;;;2.33;2.13;;;;;;;25.90;56.52;100765.38;5034248;28;20056;-79
2022/08/25 05:19:27;;;;;;;3.47;2.17;;;;;;;25.95;56.00;100767.84;5026196;28;20053;-79
2022/08/25 05:21:55;;;;;;;2.17;1.98;;;;;;;25.86;56.11;100768.13;5030722;28;20049;-79
2022/08/25 05:28:10;;;;;;;2.92;2.20;;;;;;;26.05;55.06;100766.34;5017772;28;20046;-79
2022/08/25 05:30:40;;;;;;;2.60;2.20;;;;;;;26.33;54.19;100765.09;5031873;28;20045;-79
2022/08/25 05:33:10;;;;;;;2.50;2.00;;;;;;;26.26;54.14;100765.00;5034000;28;20053;-79
2022/08/25 05:35:38;;;;;;;2.83;2.17;;;;;;;26.26;54.13;100765.00;5048658;28;20049;-79
2022/08/25 05:38:06;;;;;;;2.55;2.35;;;;;;;26.39;53.13;100768.38;5034096;28;20499;-79
2022/08/25 05:40:42;;;;;;;3.33;2.70;;;;;;;26.23;53.21;100763.78;5033919;28;20042;-79
2022/08/25 05:43:11;;;;;;;1.98;1.88;;;;;;;26.43;53.51;100769.19;5032702;28;20052;-79
2022/08/25 05:45:39;;;;;;;2.65;2.40;;;;;;;26.56;53.53;100778.16;5033717;28;20407;-79
2022/08/25 05:48:07;;;;;;;1.92;1.83;;;;;;;27.02;52.41;100774.16;5033859;28;20045;-79
2022/08/25 05:50:35;;;;;;;4.95;2.50;;;;;;;26.81;54.27;100772.78;5019976;28;20057;-79
2022/08/25 05:53:04;;;;;;;4.47;2.17;;;;;;;26.76;54.27;100764.69;5005411;28;20400;-79
2022/08/25 05:55:32;;;;;;;5.38;2.70;;;;;;;27.06;53.46;100766.56;5033586;28;20041;-79
2022/08/25 05:58:00;;;;;;;2.78;2.28;;;;;;;27.15;53.19;100771.03;5032380;28;20045;-79
2022/08/25 06:00:28;;;;;;;3.35;2.28;;;;;;;27.37;52.67;100755.16;5033410;28;20057;-76
2022/08/25 06:02:56;;;;;;;2.60;2.40;;;;;;;26.87;52.81;100767.59;5032971;28;20485;-78
2022/08/25 06:05:24;;;;;;;2.50;2.30;;;;;;;26.83;52.66;100755.50;5033285;28;20056;-78
2022/08/25 06:07:52;;;;;;;3.50;2.60;;;;;;;26.63;52.19;100758.56;5033180;28;20404;-78
2022/08/25 06:10:20;;;;;;;2.88;2.17;;;;;;;26.44;52.70;100768.00;5033377;28;20049;-78
2022/08/25 06:12:49;;;;;;;2.70;2.08;;;;;;;26.50;52.70;100752.44;5031782;28;20412;-79
2022/08/25 06:15:20;;;;;;;2.38;2.17;;;;;;;26.87;52.30;100756.34;5033140;28;20496;-79
2022/08/25 06:17:49;;;;;;;5.82;2.47;;;;;;;27.15;53.21;100762.59;5033069;28;20053;-78
2022/08/25 06:20:23;;;;;;;4.75;2.35;;;;;;;27.25;51.46;100753.44;5030088;28;20050;-79
2022/08/25 06:22:53;;;;;;;4.43;2.30;;;;;;;27.25;51.87;100753.44;5014651;28;20053;-79
2022/08/25 06:25:23;;;;;;;3.33;2.03;;;;;;;27.24;50.96;100749.03;5027541;28;20038;-78
2022/08/25 06:27:53;;;;;;;5.85;2.33;;;;;;;27.01;51.22;100747.28;5025732;28;20054;-78
2022/08/25 06:30:23;;;;;;;2.28;2.08;;;;;;;27.04;50.67;100740.88;5013866;28;20061;-78
2022/08/25 06:32:55;;;;;;;2.15;2.00;;;;;;;27.15;50.92;100745.75;5031083;28;20042;-79
2022/08/25 06:39:28;;;;;;;1.98;1.75;;;;;;;27.34;49.45;100736.25;5032008;28;20876;-78
2022/08/25 06:41:56;;;;;;;4.45;2.03;;;;;;;27.61;49.27;100739.63;5032339;28;20049;-78
2022/08/25 06:44:26;;;;;;;3.58;1.90;;;;;;;27.61;48.67;100739.63;5030906;28;20048;-78
2022/08/25 06:46:54;;;;;;;3.13;2.00;;;;;;;27.60;48.35;100742.84;5032225;28;20105;-78
2022/08/25 06:49:26;;;;;;;2.05;1.85;;;;;;;27.52;48.78;100741.97;5032182;28;20037;-79
2022/08/25 06:51:57;;;;;;;2.22;2.03;;;;;;;27.61;49.91;100745.25;5032338;28;20053;-78
2022/08/25 06:54:25;;;;;;;3.50;2.13;;;;;;;27.67;49.17;100742.88;5031988;28;20530;-78
2022/08/25 06:56:53;;;;;;;3.25;1.98;;;;;;;27.81;49.90;100747.75;5032159;28;20423;-79
2022/08/25 06:59:21;;;;;;;3.80;2.40;;;;;;;27.68;47.81;100738.06;5031886;28;20045;-78
2022/08/25 07:01:49;;;;;;;2.53;2.10;;;;;;;27.70;48.57;100742.09;5031717;28;20045;-78
2022/08/25 07:04:19;;;;;;;3.20;1.98;;;;;;;27.89;48.64;100740.97;5031874;28;20052;-78
2022/08/25 07:06:47;;;;;;;4.47;2.35;;;;;;;27.77;48.08;100732.88;5031860;28;20048;-78
2022/08/25 07:13:16;;;;;;;2.50;2.30;;;;;;;27.99;47.90;100733.75;5007075;28;20038;-77
2022/08/25 07:15:44;;;;;;;2.35;2.22;;;;;;;28.13;46.82;100726.56;5011255;28;20114;-78
2022/08/25 07:18:13;;;;;;;1.92;1.83;;;;;;;28.11;47.26;100729.75;5014249;28;20523;-78
2022/08/25 07:20:41;;;;;;;4.72;2.00;;;;;;;28.30;47.10;100725.03;5031366;28;20038;-78
2022/08/25 07:23:09;;;;;;;2.38;2.10;;;;;;;28.53;46.60;100730.25;5021569;28;20060;-78
2022/08/25 07:25:37;;;;;;;3.25;2.30;;;;;;;28.39;46.15;100730.25;5029641;28;20041;-78
2022/08/25 07:28:05;;;;;;;2.80;1.85;;;;;;;28.49;46.06;100717.41;5019199;28;20045;-78
2022/08/25 07:30:36;;;;;;;2.00;1.90;;;;;;;28.50;45.07;100725.41;5020154;28;20755;-78
2022/08/25 07:33:03;;;;;;;1.92;1.73;;;;;;;28.66;45.79;100724.22;5026114;28;20487;-78
2022/08/25 07:35:35;;;;;;;3.35;1.90;;;;;;;28.48;45.68;100715.81;5031248;28;20046;-78
2022/08/25 07:38:06;;;;;;;3.47;2.03;;;;;;;28.37;46.01;100716.59;5030207;28;20832;-78
2022/08/25 07:40:37;;;;;;;3.13;1.45;;;;;;;28.55;46.09;100716.59;5003256;28;20126;-78
2022/08/25 07:43:09;;;;;;;2.50;1.70;;;;;;;28.66;45.29;100713.78;5005101;28;20042;-78
2022/08/25 07:45:38;;;;;;;1.80;1.70;;;;;;;28.91;45.21;100715.00;5009539;28;20053;-78
2022/08/25 07:48:18;;;;;;;3.63;1.58;;;;;;;29.08;44.26;100707.75;5008822;28;20046;-78
2022/08/25 07:50:48;;;;;;;2.33;2.13;;;;;;;28.95;44.22;100718.63;5008195;28;20050;-79
2022/08/25 07:53:16;;;;;;;1.90;1.70;;;;;;;29.09;43.74;100720.63;5006752;28;20482;-78
2022/08/25 07:55:44;;;;;;;2.58;1.80;;;;;;;29.14;44.42;100717.38;5007147;28;20038;-78
2022/08/25 07:58:14;;;;;;;2.15;1.67;;;;;;;29.11;43.78;100718.19;5010109;28;20042;-78
2022/08/25 08:00:46;;;;;;;2.15;1.95;;;;;;;29.30;43.97;100714.13;5008172;28;20057;-77
2022/08/25 08:03:20;;;;;;;2.97;2.10;;;;;;;29.32;43.67;100722.97;5008224;28;20057;-78
2022/08/25 08:06:10;;;;;;;3.03;2.00;;;;;;;29.43;43.82;100722.13;5007313;28;20049;-77
2022/08/25 08:08:48;;;;;;;2.40;1.98;;;;;;;29.48;43.81;100733.03;5008099;28;20049;-77
2022/08/25 08:11:32;;;;;;;5.25;2.30;;;;;;;29.25;43.71;100725.81;5004295;28;20050;-77
2022/08/25 08:14:04;;;;;;;2.30;2.10;;;;;;;29.36;44.13;100720.13;5013746;28;20061;-76
2022/08/25 08:16:37;;;;;;;2.35;2.15;;;;;;;29.38;43.90;100720.53;5023639;28;20490;-77
2022/08/25 08:19:06;;;;;;;2.47;1.90;;;;;;;29.29;43.22;100722.97;5019519;28;20049;-77
2022/08/25 08:21:51;;;;;;;3.38;2.03;;;;;;;29.44;43.66;100724.56;5028903;28;20072;-77
2022/08/25 08:24:38;;;;;;;1.75;1.65;;;;;;;29.56;43.21;100716.88;5023640;28;20042;-77
2022/08/25 08:27:23;;;;;;;2.78;2.10;;;;;;;29.63;43.25;100723.28;5033226;28;20048;-78
2022/08/25 08:29:52;;;;;;;2.20;2.00;;;;;;;29.57;43.57;100716.47;5017225;28;20050;-78
2022/08/25 08:32:20;;;;;;;1.80;1.70;;;;;;;29.67;43.29;100716.84;5008413;28;20392;-78
2022/08/25 08:34:58;;;;;;;1.90;1.70;;;;;;;29.77;43.44;100719.59;5014630;28;20045;-78
2022/08/25 08:37:26;;;;;;;2.20;1.92;;;;;;;29.79;42.52;100716.38;5014153;28;20045;-78
2022/08/25 08:39:55;;;;;;;2.20;1.98;;;;;;;29.77;43.77;100713.97;5012492;28;20048;-78
2022/08/25 08:42:41;;;;;;;2.92;2.17;;;;;;;29.94;43.73;100722.75;5014346;28;20053;-78
2022/08/25 08:45:36;;;;;;;2.05;1.85;;;;;;;30.06;43.28;100723.50;5014159;28;20046;-78
2022/08/25 08:48:32;;;;;;;3.40;2.00;;;;;;;30.13;43.42;100703.72;5014079;28;20599;-79
2022/08/25 08:51:11;;;;;;;5.85;2.00;;;;;;;30.13;43.17;100707.34;5013516;28;20054;-78
2022/08/25 08:54:07;;;;;;;2.63;2.22;;;;;;;30.28;42.06;100710.88;5010634;28;20045;-78
2022/08/25 08:56:46;;;;;;;2.22;2.03;;;;;;;30.40;42.37;100708.78;5012791;28;20041;-78
2022/08/25 08:59:20;;;;;;;5.45;2.33;;;;;;;30.38;42.77;100717.66;5013759;28;20396;-78
2022/08/25 09:01:58;;;;;;;3.35;2.30;;;;;;;30.37;43.05;100703.94;5007508;28;20038;-78
2022/08/25 09:04:47;;;;;;;2.85;2.60;;;;;;;30.46;42.56;100701.47;5009416;28;20516;-77
2022/08/25 09:07:25;;;;;;;4.20;3.50;;;;;;;30.41;42.28;100694.22;4996185;28;20065;-78
2022/08/25 09:09:53;;;;;;;4.60;2.45;;;;;;;30.49;42.36;100692.16;5012611;28;20046;-78
2022/08/25 09:12:45;;;;;;;4.35;2.60;;;;;;;30.58;41.83;100686.84;5011876;28;20472;-78
2022/08/25 09:18:56;;;;;;;2.47;2.28;;;;;;;30.63;42.83;100682.75;5033060;28;20120;-78
2022/08/25 09:21:38;;;;;;;2.67;2.15;;;;;;;30.75;41.22;100681.50;5033363;28;20084;-78
2022/08/25 09:24:25;;;;;;;2.65;2.45;;;;;;;30.78;41.84;100679.84;5032900;28;20068;-78
2022/08/25 09:27:45;;;;;;;2.55;2.20;;;;;;;30.92;41.88;100670.41;5033171;28;20082;-79
2022/08/25 09:30:51;;;;;;;2.88;1.98;;;;;;;30.93;40.74;100672.81;5033189;28;20164;-78
2022/08/25 09:33:21;;;;;;;2.45;1.83;;;;;;;31.07;40.70;100673.88;5032536;28;20086;-78
2022/08/25 09:35:52;;;;;;;1.98;1.88;;;;;;;31.18;40.41;100673.78;5033259;28;20046;-78
2022/08/25 09:38:20;;;;;;;2.00;1.80;;;;;;;31.16;40.49;100667.72;5032794;28;20057;-78
2022/08/25 09:40:53;;;;;;;1.70;1.60;;;;;;;31.26;40.45;100671.69;5028071;28;20041;-78
2022/08/25 09:43:31;;;;;;;1.90;1.80;;;;;;;31.30;40.97;100670.44;5027683;28;20049;-79
2022/08/25 09:46:07;;;;;;;3.78;2.03;;;;;;;31.30;40.74;100678.91;5029679;28;20419;-79
2022/08/25 09:48:56;;;;;;;3.80;1.88;;;;;;;31.45;41.19;100673.06;5021301;28;20049;-78
2022/08/25 09:51:38;;;;;;;2.65;2.10;;;;;;;31.48;40.60;100661.72;5003633;28;20043;-78
2022/08/25 09:54:13;;;;;;;3.13;1.83;;;;;;;31.43;41.20;100658.56;5003023;28;20045;-78
2022/08/25 09:57:07;;;;;;;4.15;1.67;;;;;;;31.36;40.25;100657.44;5012414;28;20042;-78
2022/08/25 09:59:36;;;;;;;2.78;1.88;;;;;;;31.49;40.26;100657.69;5010591;28;21231;-78
2022/08/25 10:02:27;;;;;;;1.60;1.50;;;;;;;31.64;40.59;100658.28;5011792;28;20057;-78
2022/08/25 10:04:55;;;;;;;2.63;1.65;;;;;;;31.78;40.14;100651.59;5010511;28;20416;-78
2022/08/25 10:07:28;;;;;;;1.80;1.50;;;;;;;31.88;39.02;100652.72;5012100;28;20042;-79
2022/08/25 10:10:16;;;;;;;2.70;1.70;;;;;;;32.05;38.54;100647.19;5011572;28;20042;-77
2022/08/25 10:12:46;;;;;;;2.25;1.75;;;;;;;31.95;37.92;100653.84;5006887;28;20041;-79
2022/08/25 10:15:24;;;;;;;3.92;1.83;;;;;;;31.96;38.26;100649.78;5005467;28;20494;-78
2022/08/25 10:18:23;;;;;;;2.65;1.88;;;;;;;32.06;37.66;100637.50;5009843;28;20053;-78
2022/08/25 10:21:16;;;;;;;1.70;1.60;;;;;;;32.22;37.26;100647.34;5007562;28;20034;-78
2022/08/25 10:23:54;;;;;;;2.28;1.63;;;;;;;32.25;36.91;100644.47;5004583;28;20108;-78
2022/08/25 10:26:44;;;;;;;3.83;1.65;;;;;;;32.28;36.66;100643.59;5001436;28;20053;-77
2022/08/25 10:29:27;;;;;;;1.77;1.63;;;;;;;32.11;36.79;100645.47;5006475;28;20771;-78
2022/08/25 10:32:17;;;;;;;2.67;1.55;;;;;;;32.21;37.08;100635.25;5000859;28;20042;-78
2022/08/25 10:39:01;;;;;;;1.90;1.80;;;;;;;32.22;36.66;100636.03;4997474;28;20041;-78
2022/08/25 10:41:32;;;;;;;2.03;1.88;;;;;;;32.38;37.29;100629.69;5000558;28;20042;-78
2022/08/25 10:47:24;;;;;;;2.60;1.90;;;;;;;32.53;37.17;100625.41;5009351;28;20050;-77
2022/08/25 10:50:04;;;;;;;2.45;1.80;;;;;;;32.51;36.96;100616.56;5010416;28;20053;-78
2022/08/25 10:52:47;;;;;;;2.53;2.08;;;;;;;32.51;36.80;100615.75;5011843;28;20520;-78
2022/08/25 10:55:36;;;;;;;1.50;1.40;;;;;;;32.55;36.81;100616.50;5011923;28;20053;-78
2022/08/25 10:58:53;;;;;;;2.35;1.50;;;;;;;32.66;36.35;100622.75;5009549;28;20050;-78
2022/08/25 11:01:31;;;;;;;2.20;1.57;;;;;;;32.83;36.30;100620.00;5006814;28;20762;-78
2022/08/25 11:04:45;;;;;;;1.83;1.60;;;;;;;32.97;36.52;100613.28;5011673;28;20049;-78
2022/08/25 11:07:34;;;;;;;2.83;2.03;;;;;;;33.06;36.72;100605.00;5008106;28;20413;-78
2022/08/25 11:10:45;;;;;;;3.50;1.90;;;;;;;33.15;36.22;100604.41;5007809;28;20053;-78
2022/08/25 11:13:21;;;;;;;2.67;1.90;;;;;;;33.34;36.01;100605.59;5010535;28;20064;-78
2022/08/25 11:15:59;;;;;;;3.40;1.80;;;;;;;33.40;35.72;100603.06;5018916;28;20052;-78
2022/08/25 11:18:54;;;;;;;2.72;1.70;;;;;;;33.50;35.73;100602.06;5027420;28;20048;-78
2022/08/25 11:22:01;;;;;;;2.25;2.05;;;;;;;33.61;35.51;100592.50;5007970;28;20049;-78
2022/08/25 11:24:40;;;;;;;2.35;1.60;;;;;;;33.51;35.05;100586.66;5004151;28;20413;-78
2022/08/25 11:27:21;;;;;;;4.05;1.77;;;;;;;33.56;35.54;100584.53;5001495;28;21896;-78
2022/08/25 11:30:13;;;;;;;1.58;1.48;;;;;;;33.67;35.19;100587.09;5008598;28;20050;-78
2022/08/25 11:32:46;;;;;;;2.10;1.90;;;;;;;33.75;34.95;100586.50;5009039;28;20049;-78
2022/08/25 11:35:28;;;;;;;2.15;1.95;;;;;;;33.69;34.61;100582.59;5009941;28;20528;-79
2022/08/25 11:38:17;;;;;;;1.90;1.67;;;;;;;33.39;34.58;100581.63;5007856;28;20053;-78
2022/08/25 11:41:27;;;;;;;3.00;1.67;;;;;;;33.53;34.42;100574.06;5009212;28;20374;-79
2022/08/25 11:44:11;;;;;;;3.40;1.60;;;;;;;33.70;34.88;100570.00;5009695;28;20516;-78
2022/08/25 11:46:51;;;;;;;1.70;1.60;;;;;;;33.66;34.54;100569.28;5010423;28;20049;-79
2022/08/25 11:49:53;;;;;;;1.70;1.60;;;;;;;33.81;34.71;100561.22;5013523;28;20038;-79
2022/08/25 11:52:32;;;;;;;1.92;1.80;;;;;;;34.11;33.86;100556.44;5013064;28;20045;-79
2022/08/25 11:55:06;;;;;;;2.03;1.90;;;;;;;34.26;33.99;100559.69;5008590;28;20169;-79
2022/08/25 11:57:38;;;;;;;2.50;1.52;;;;;;;34.31;33.78;100561.22;5013399;28;20046;-79
2022/08/25 12:04:13;;;;;;;2.20;1.55;;;;;;;34.39;33.27;100554.09;5011942;28;20104;-79
2022/08/25 12:07:16;;;;;;;2.25;1.42;;;;;;;34.49;33.47;100555.03;5012152;28;20041;-78
2022/08/25 12:09:52;;;;;;;4.05;1.70;;;;;;;34.51;32.94;100557.44;5007441;28;20046;-78
2022/08/25 12:12:49;;;;;;;3.17;1.70;;;;;;;34.55;33.36;100552.47;5013096;28;20057;-78
2022/08/25 12:15:26;;;;;;;2.00;1.73;;;;;;;34.27;32.88;100544.28;5001805;28;20046;-78
2022/08/25 12:18:15;;;;;;;2.00;1.80;;;;;;;34.58;33.28;100543.88;5009460;28;20072;-77
2022/08/25 12:20:57;;;;;;;2.42;1.63;;;;;;;34.17;33.03;100548.19;5011598;28;20416;-77
2022/08/25 12:23:37;;;;;;;2.03;1.83;;;;;;;34.13;33.92;100548.28;5008810;28;20057;-77
2022/08/25 12:26:26;;;;;;;6.32;1.70;;;;;;;34.36;35.04;100543.66;5011029;28;20053;-78